Florence, Indiana
Current Conditions -  °F | °C
As of 10:52 AM on Sunday 25 Jan 2015 (Local Time) from KCVG Reporting Station
Overcast Overcast  
Wind Chill: 35°   Ceiling: 7500
Heat Index: 39°   Visibility: 10mi
Dew Point: 31°   Wind: 6mph
Humidity: 73%   Direction: 170°S
Pressure: 29.73"   Gusts: NA
Location:  38.78°N, 84.92°W
Report Text: KCVG 251552Z 17005KT 10SM BKN075 OVC080 04/M01 A2973 RMK AO2 SLP070 T00391006
Loading
Personal Weather Stations






























Interactive Weather Map New forecast layout! Learn more

10-Day Weather Forecast

Advertisements
Track Severe Weather on mobile